Latest Weather Observations for Forrest

IDW60801

Issued at 2:03 pm WST Sunday 24 October 2021 (issued every 10 minutes, with the page automatically refreshed every 10 minutes)

About weather observations | Map of weather stations | Latest weather observations for WA | Other Formats
Station Details ID: 011052 Name: FORREST Lat: -30.85 Lon: 128.11 Height: 159.0 m
Data from the previous 72 hours. | See also: Recent months at Forrest
Date/Time
WST
Temp
°C
App
Temp
°C
Dew
Point
°C
Rel
Hum
%
Delta-T
°C
Wind Press
QNH
hPa
Press
MSL
hPa
Rain since
9am
mm
Dir  Spd
km/h
Gust
km/h
Spd
kts
Gust
kts
24/02:00pm 23.2 19.2 0.3 22 10.5 NNW 11 19 6 10 1019.6 1019.2 0.0
24/01:30pm 23.5 18.9 1.8 24 10.3 NNE 15 26 8 14 1020.1 1019.7 0.0
24/01:00pm 22.3 18.0 0.8 24 9.9 NNW 13 22 7 12 1020.6 1020.2 0.0
24/12:30pm 22.0 18.1 1.1 25 9.7 NNE 11 17 6 9 1021.0 1020.6 0.0
24/12:00pm 21.9 17.8 2.1 27 9.3 NNE 13 26 7 14 1021.5 1021.1 0.0
24/11:30am 21.1 16.9 1.9 28 9.0 E 13 20 7 11 1022.1 1021.7 0.0
24/11:00am 20.0 15.8 1.4 29 8.5 NNE 13 26 7 14 1022.8 1022.4 0.0
24/10:30am 20.4 15.3 3.2 32 8.2 NE 19 26 10 14 1023.5 1023.1 0.0
24/10:00am 19.3 14.6 3.1 34 7.6 NE 17 26 9 14 1024.1 1023.8 0.0
24/09:30am 18.0 12.9 3.9 39 6.7 NE 20 32 11 17 1024.7 1024.3 0.0
24/09:00am 17.9 12.6 4.8 42 6.3 E 22 33 12 18 1025.1 1024.7 0.0
24/08:30am 17.0 11.4 5.3 46 5.7 ENE 24 35 13 19 1025.3 1024.9 0.0
24/08:00am 16.0 9.3 5.6 50 5.0 ENE 30 37 16 20 1025.7 1025.3 0.0
24/07:30am 15.0 7.9 5.5 53 4.5 E 32 39 17 21 1025.6 1025.2 0.0
24/07:00am 14.0 7.3 5.6 57 4.0 ENE 30 37 16 20 1025.8 1025.4 0.0
24/06:30am 12.1 6.8 5.0 62 3.3 E 22 28 12 15 1026.0 1025.6 0.0
24/06:00am 10.2 5.8 5.0 70 2.4 E 17 20 9 11 1026.1 1025.7 0.0
24/05:30am 7.5 4.5 3.9 78 1.6 ESE 9 13 5 7 1026.1 1025.7 0.0
24/05:00am 5.9 2.3 3.1 82 1.2 ESE 11 11 6 6 1025.8 1025.4 0.0
24/04:30am 5.7 2.5 2.9 82 1.2 ESE 9 11 5 6 1025.6 1025.2 0.0
24/04:00am 6.7 2.9 3.7 81 1.3 ESE 13 15 7 8 1025.3 1024.9 0.0
24/03:30am 7.1 3.3 4.1 81 1.3 ESE 13 17 7 9 1025.1 1024.7 0.0
24/03:00am 7.0 3.2 4.0 81 1.3 SE 13 15 7 8 1025.1 1024.7 0.0
24/02:30am 7.0 3.5 3.6 79 1.5 SE 11 13 6 7 1025.1 1024.7 0.0
24/02:00am 7.8 4.8 4.2 78 1.6 SE 9 11 5 6 1025.3 1024.9 0.0
24/01:30am 8.3 4.2 4.3 76 1.8 SE 15 15 8 8 1025.2 1024.8 0.0
24/01:00am 8.7 5.0 4.5 75 1.9 SE 13 15 7 8 1025.5 1025.1 0.0
24/12:30am 9.2 5.6 4.8 74 2.0 SE 13 17 7 9 1025.8 1025.4 0.0
24/12:00am 9.6 5.6 5.0 73 2.1 SE 15 17 8 9 1025.9 1025.5 0.0
 
Date/Time
WST
Temp
°C
App
Temp
°C
Dew
Point
°C
Rel
Hum
%
Delta-T
°C
Wind Press
QNH
hPa
Press
MSL
hPa
Rain since
9am
mm
Dir  Spd
km/h
Gust
km/h
Spd
kts
Gust
kts
23/11:30pm 10.3 6.0 5.3 71 2.3 SE 17 19 9 10 1026.1 1025.7 0.0
23/11:00pm 10.4 6.0 5.0 69 2.4 SE 17 19 9 10 1026.3 1025.9 0.0
23/10:30pm 10.8 6.4 4.9 67 2.7 SE 17 19 9 10 1026.4 1026.0 0.0
23/10:00pm 11.4 6.7 5.1 65 2.9 SE 19 26 10 14 1026.5 1026.1 0.0
23/09:30pm 11.9 7.0 5.1 63 3.2 SE 20 28 11 15 1026.6 1026.2 0.0
23/09:00pm 12.3 7.0 4.8 60 3.4 SE 22 28 12 15 1026.6 1026.2 0.0
23/08:30pm 12.8 7.0 4.3 56 3.9 SE 24 30 13 16 1026.7 1026.3 0.0
23/08:00pm 13.3 7.1 4.2 54 4.2 SE 26 35 14 19 1026.5 1026.1 0.0
23/07:30pm 13.8 8.0 4.4 53 4.4 SE 24 33 13 18 1026.2 1025.8 0.0
23/07:00pm 14.5 8.0 4.5 51 4.6 SE 28 39 15 21 1025.9 1025.5 0.0
23/06:30pm 15.3 9.1 4.1 47 5.2 SE 26 37 14 20 1025.3 1024.9 0.0
23/06:00pm 16.2 9.3 4.6 46 5.5 SE 30 39 16 21 1025.0 1024.6 0.0
23/05:30pm 17.4 10.5 4.4 42 6.2 SE 30 39 16 21 1024.4 1024.1 0.0
23/05:00pm 18.7 12.1 4.1 38 7.0 SE 28 39 15 21 1024.1 1023.8 0.0
23/04:30pm 20.0 14.8 3.3 33 7.9 SSE 20 32 11 17 1024.0 1023.7 0.0
23/04:00pm 20.8 13.7 3.5 32 8.3 ESE 30 39 16 21 1023.8 1023.5 0.0
23/03:30pm 20.7 15.6 3.0 31 8.4 SSE 19 35 10 19 1023.6 1023.2 0.0
23/03:00pm 20.7 13.9 3.0 31 8.4 SE 28 37 15 20 1023.7 1023.3 0.0
23/02:30pm 20.9 14.9 3.2 31 8.5 SE 24 41 13 22 1023.7 1023.3 0.0
23/02:00pm 21.6 16.0 3.3 30 8.8 SSE 22 32 12 17 1023.8 1023.5 0.0
23/01:30pm 21.1 16.4 3.3 31 8.5 SE 17 33 9 18 1024.0 1023.7 0.0
23/01:00pm 21.1 16.4 3.3 31 8.5 SE 17 30 9 16 1024.3 1024.0 0.0
23/12:43pm 20.9 15.6 3.2 31 8.5 SE 20 39 11 21 1024.4 1024.1 0.0
23/12:30pm 20.8 15.7 4.0 33 8.1 ESE 20 33 11 18 1024.8 1024.4 0.0
23/12:00pm 20.3 15.3 3.5 33 8.0 SSE 19 35 10 19 1025.3 1024.9 0.0
23/11:30am 19.7 14.1 3.4 34 7.7 SE 22 33 12 18 1025.7 1025.3 0.0
23/11:00am 19.6 14.6 4.5 37 7.3 ESE 20 30 11 16 1026.0 1025.6 0.0
23/10:30am 18.7 13.9 4.8 40 6.7 SE 19 30 10 16 1026.3 1025.9 0.0
23/10:00am 18.4 13.5 4.2 39 6.8 SE 19 28 10 15 1026.7 1026.3 0.0
23/09:30am 17.2 12.0 3.8 41 6.3 SSE 20 32 11 17 1026.9 1026.5 0.0
23/09:00am 17.4 12.6 5.4 45 5.8 SSE 20 28 11 15 1027.3 1026.9 0.0
23/08:30am 17.2 12.6 5.8 47 5.6 SE 19 30 10 16 1027.3 1026.9 0.0
23/08:00am 16.0 11.3 5.3 49 5.1 SE 19 28 10 15 1027.3 1026.9 0.0
23/07:30am 15.3 10.8 6.1 54 4.5 SE 19 30 10 16 1026.9 1026.5 0.0
23/07:00am 14.8 10.3 7.1 60 3.8 SE 20 28 11 15 1026.7 1026.3 0.0
23/06:30am 13.8 10.4 7.8 67 3.0 SE 15 22 8 12 1026.5 1026.1 0.0
23/06:00am 11.6 8.6 7.7 77 1.9 SSE 13 17 7 9 1025.9 1025.5 0.0
23/05:30am 9.5 6.8 7.3 86 1.1 S 11 15 6 8 1025.7 1025.3 0.0
23/05:00am 7.7 4.7 6.0 89 0.8 S 11 13 6 7 1025.5 1025.1 0.0
23/04:30am 7.8 4.4 6.1 89 0.8 SSW 13 15 7 8 1025.2 1024.8 0.0
23/04:00am 7.9 4.9 6.2 89 0.8 S 11 15 6 8 1025.0 1024.6 0.0
23/03:30am 8.2 4.9 6.3 88 0.9 S 13 15 7 8 1024.7 1024.3 0.0
23/03:00am 8.7 5.5 6.8 88 0.9 S 13 15 7 8 1024.3 1024.0 0.0
23/02:30am 9.1 5.6 7.2 88 0.9 S 15 17 8 9 1024.2 1023.9 0.0
23/02:00am 9.4 6.0 7.5 88 0.9 S 15 19 8 10 1024.0 1023.7 0.0
23/01:30am 9.5 6.4 7.3 86 1.1 S 13 17 7 9 1024.2 1023.9 0.0
23/01:00am 9.8 6.7 7.4 85 1.1 S 13 17 7 9 1024.2 1023.9 0.0
23/12:30am 10.1 7.0 7.3 83 1.3 S 13 15 7 8 1024.3 1024.0 0.0
23/12:00am 10.6 7.6 7.7 82 1.4 S 13 15 7 8 1024.6 1024.2 0.0
 
Date/Time
WST
Temp
°C
App
Temp
°C
Dew
Point
°C
Rel
Hum
%
Delta-T
°C
Wind Press
QNH
hPa
Press
MSL
hPa
Rain since
9am
mm
Dir  Spd
km/h
Gust
km/h
Spd
kts
Gust
kts
22/11:30pm 11.0 8.8 7.7 80 1.6 S 9 11 5 6 1024.8 1024.4 0.0
22/11:00pm 11.5 8.9 7.8 78 1.8 S 11 13 6 7 1024.8 1024.4 0.0
22/10:30pm 12.0 9.9 8.1 77 1.9 S 9 11 5 6 1025.0 1024.6 0.0
22/10:00pm 12.6 10.5 8.1 74 2.2 S 9 13 5 7 1025.1 1024.7 0.0
22/09:30pm 13.3 10.1 8.6 73 2.4 SSE 15 19 8 10 1025.1 1024.7 0.0
22/09:00pm 13.7 10.8 8.3 70 2.7 SE 13 17 7 9 1025.1 1024.7 0.0
22/08:30pm 14.3 10.7 8.3 67 3.0 SSE 17 26 9 14 1024.9 1024.5 0.0
22/08:00pm 14.8 11.1 8.1 64 3.4 SE 17 24 9 13 1024.7 1024.3 0.0
22/07:30pm 15.5 9.8 8.3 62 3.7 SSE 28 37 15 20 1024.2 1023.9 0.0
22/07:00pm 16.1 10.2 7.6 57 4.3 SSE 28 39 15 21 1023.7 1023.3 0.0
22/06:30pm 16.9 10.0 7.3 53 4.8 SSE 33 44 18 24 1022.9 1022.5 0.0
22/06:00pm 17.9 10.7 5.8 45 5.9 SSE 33 43 18 23 1022.3 1021.9 0.0
22/05:30pm 19.3 11.8 4.6 38 7.1 S 33 44 18 24 1021.5 1021.1 0.0
22/05:11pm 20.2 13.2 3.9 34 7.9 S 30 48 16 26 1021.1 1020.7 0.0
22/05:00pm 20.6 13.2 3.8 33 8.1 S 32 41 17 22 1021.0 1020.6 0.0
22/04:30pm 21.5 15.6 4.1 32 8.5 S 24 35 13 19 1020.5 1020.1 0.0
22/04:00pm 22.1 16.0 4.7 32 8.6 SSE 26 35 14 19 1020.3 1019.9 0.0
22/03:30pm 22.1 16.4 4.7 32 8.6 S 24 33 13 18 1019.8 1019.4 0.0
22/03:00pm 22.4 16.0 5.4 33 8.5 S 28 37 15 20 1019.4 1019.0 0.0
22/02:30pm 22.6 16.6 5.1 32 8.8 SSW 26 35 14 19 1019.3 1018.9 0.0
22/02:00pm 22.6 16.6 5.1 32 8.8 S 26 39 14 21 1019.2 1018.8 0.0
22/01:30pm 22.7 17.1 5.2 32 8.8 SSW 24 39 13 21 1019.4 1019.0 0.0
22/01:00pm 22.9 17.3 5.3 32 8.9 S 24 35 13 19 1019.6 1019.2 0.0
22/12:30pm 23.5 18.7 5.4 31 9.2 S 20 39 11 21 1019.8 1019.4 0.0
22/12:00pm 22.5 16.6 5.9 34 8.4 SW 26 41 14 22 1020.1 1019.7 0.0
22/11:30am 22.8 16.9 5.7 33 8.7 SSW 26 37 14 20 1020.3 1019.9 0.0
22/11:00am 21.4 16.4 6.5 38 7.6 S 22 35 12 19 1020.5 1020.1 0.0
22/10:30am 20.9 15.8 7.5 42 7.0 SSW 24 33 13 18 1020.8 1020.4 0.0
22/10:00am 20.8 15.6 7.1 41 7.0 S 24 35 13 19 1021.1 1020.7 0.0
22/09:30am 20.3 14.9 6.3 40 7.1 SSW 24 35 13 19 1021.2 1020.8 0.0
22/09:00am 20.3 15.1 5.5 38 7.3 S 22 35 12 19 1021.1 1020.7 0.0
22/08:30am 19.3 14.6 6.1 42 6.6 S 20 26 11 14 1021.1 1020.7 0.0
22/08:00am 18.0 13.9 7.7 51 5.2 SSW 19 28 10 15 1021.1 1020.7 0.0
22/07:30am 17.4 14.6 8.5 56 4.6 SSW 13 17 7 9 1020.8 1020.4 0.0
22/07:00am 16.6 13.9 9.1 61 3.9 SSW 13 17 7 9 1020.5 1020.1 0.0
22/06:30am 16.2 13.7 9.6 65 3.5 SSW 13 19 7 10 1020.3 1019.9 0.0
22/06:00am 15.7 13.3 10.0 69 3.0 SSW 13 15 7 8 1019.9 1019.5 0.0
22/05:30am 15.3 13.9 10.9 75 2.4 SSW 9 11 5 6 1019.3 1018.9 0.0
22/05:00am 15.0 13.7 11.2 78 2.0 SSW 9 11 5 6 1018.8 1018.4 0.0
22/04:30am 14.9 13.7 11.5 80 1.8 S 9 11 5 6 1018.4 1017.9 0.0
22/04:00am 14.8 13.2 11.4 80 1.8 SSW 11 15 6 8 1018.2 1017.7 0.0
22/03:30am 14.6 12.7 11.7 83 1.6 SSW 13 17 7 9 1017.8 1017.4 0.0
22/03:00am 14.1 12.6 12.0 87 1.1 SSW 11 13 6 7 1017.5 1017.1 0.0
22/02:30am 13.6 12.4 11.5 87 1.1 S 9 11 5 6 1017.2 1016.8 0.0
22/02:00am 13.3 12.0 11.2 87 1.1 S 9 11 5 6 1016.9 1016.5 0.0
22/01:30am 13.4 12.1 11.1 86 1.2 S 9 11 5 6 1016.8 1016.4 0.0
22/01:00am 13.8 12.5 11.1 84 1.4 S 9 11 5 6 1016.8 1016.4 0.0
22/12:30am 14.4 12.8 11.6 83 1.5 S 11 13 6 7 1016.8 1016.4 0.0
22/12:00am 14.8 12.8 11.6 81 1.7 S 13 19 7 10 1016.6 1016.2 0.0
 
Date/Time
WST
Temp
°C
App
Temp
°C
Dew
Point
°C
Rel
Hum
%
Delta-T
°C
Wind Press
QNH
hPa
Press
MSL
hPa
Rain since
9am
mm
Dir  Spd
km/h
Gust
km/h
Spd
kts
Gust
kts
21/11:30pm 15.2 12.5 11.6 79 2.0 S 17 22 9 12 1016.4 1016.0 0.0
21/11:00pm 15.6 12.4 11.4 76 2.3 S 19 26 10 14 1016.4 1016.0 0.0
21/10:30pm 16.0 12.2 11.0 72 2.7 SSE 22 30 12 16 1016.0 1015.6 0.0
21/10:00pm 16.5 12.8 10.1 66 3.4 SSE 20 32 11 17 1015.9 1015.5 0.0
21/09:30pm 16.8 12.6 9.7 63 3.7 SSE 22 32 12 17 1015.7 1015.3 0.0
21/09:00pm 17.4 12.7 9.3 59 4.3 SSE 24 32 13 17 1015.9 1015.5 0.0
21/08:30pm 17.9 12.4 9.3 57 4.5 SSE 28 33 15 18 1015.5 1015.1 0.0
21/08:00pm 18.5 13.0 9.3 55 4.9 SSE 28 37 15 20 1015.2 1014.8 0.0
21/07:30pm 19.7 13.9 9.3 51 5.5 SSE 30 37 16 20 1014.7 1014.3 0.0
21/07:00pm 20.7 15.2 9.0 47 6.2 SSE 28 37 15 20 1014.2 1013.8 0.0
21/06:30pm 22.7 19.1 8.4 40 7.6 SW 17 37 9 20 1013.6 1013.2 0.0
21/06:00pm 24.5 20.3 5.8 30 9.6 WSW 17 22 9 12 1013.0 1012.6 0.0
21/05:30pm 25.4 20.9 6.1 29 10.0 WSW 19 22 10 12 1012.6 1012.1 0.0
21/05:00pm 26.0 20.5 6.1 28 10.4 WSW 24 33 13 18 1012.2 1011.7 0.0
21/04:30pm 26.8 20.6 6.2 27 10.8 WSW 28 39 15 21 1011.9 1011.4 0.0
21/04:00pm 26.8 20.6 6.2 27 10.8 WSW 28 33 15 18 1011.5 1011.0 0.0
21/03:30pm 26.5 19.9 6.0 27 10.7 WSW 30 43 16 23 1011.4 1010.9 0.0
21/03:00pm 27.0 22.9 6.4 27 10.9 WNW 17 28 9 15 1011.4 1010.9 0.0
21/02:32pm 27.9 21.8 6.6 26 11.3 W 28 46 15 25 1011.1 1010.7 0.0
21/02:30pm 27.8 22.5 6.6 26 11.3 W 24 46 13 25 1011.0 1010.6 0.0

Other formats

Comma delimited format used in spreadsheet applications
http://www.bom.gov.au/fwo/IDW60801/IDW60801.95646.axf

JavaScript Object Notation format (JSON) in row-major order
http://www.bom.gov.au/fwo/IDW60801/IDW60801.95646.json

Data quality

Most of these data are generated automatically and are frequently updated. Quality checks on data are not normally performed. It is possible for incorrect values to appear. Refer to information at About Latest Weather Observations and please check the disclaimer before using these data.